sensor_id;sensor_type;location;lat;lon;timestamp;P1;durP1;ratioP1;P2;durP2;ratioP2
11935;SDS011;6027;48.576;9.180;2023-07-30T00:00:42;16.08;;;15.07;;
11935;SDS011;6027;48.576;9.180;2023-07-30T00:03:07;11.55;;;10.85;;
11935;SDS011;6027;48.576;9.180;2023-07-30T00:05:33;12.68;;;11.73;;
11935;SDS011;6027;48.576;9.180;2023-07-30T00:07:58;13.80;;;12.73;;
11935;SDS011;6027;48.576;9.180;2023-07-30T00:10:23;12.75;;;11.90;;
11935;SDS011;6027;48.576;9.180;2023-07-30T00:12:49;12.63;;;11.63;;
11935;SDS011;6027;48.576;9.180;2023-07-30T00:15:14;12.65;;;11.80;;
11935;SDS011;6027;48.576;9.180;2023-07-30T00:17:40;12.07;;;11.38;;
11935;SDS011;6027;48.576;9.180;2023-07-30T00:20:08;13.20;;;12.30;;
11935;SDS011;6027;48.576;9.180;2023-07-30T00:22:34;13.48;;;12.48;;
11935;SDS011;6027;48.576;9.180;2023-07-30T00:25:06;14.07;;;13.15;;
11935;SDS011;6027;48.576;9.180;2023-07-30T00:27:31;13.35;;;12.43;;
11935;SDS011;6027;48.576;9.180;2023-07-30T00:29:57;15.73;;;14.30;;
11935;SDS011;6027;48.576;9.180;2023-07-30T00:32:22;14.25;;;13.13;;
11935;SDS011;6027;48.576;9.180;2023-07-30T00:34:48;14.73;;;13.73;;
11935;SDS011;6027;48.576;9.180;2023-07-30T00:37:13;13.52;;;12.40;;
11935;SDS011;6027;48.576;9.180;2023-07-30T00:39:39;14.27;;;13.20;;
11935;SDS011;6027;48.576;9.180;2023-07-30T00:42:04;13.50;;;11.40;;
11935;SDS011;6027;48.576;9.180;2023-07-30T00:44:30;12.40;;;11.55;;
11935;SDS011;6027;48.576;9.180;2023-07-30T00:46:55;13.43;;;12.38;;
11935;SDS011;6027;48.576;9.180;2023-07-30T00:49:20;14.23;;;13.18;;
11935;SDS011;6027;48.576;9.180;2023-07-30T00:51:46;15.00;;;14.05;;
11935;SDS011;6027;48.576;9.180;2023-07-30T00:54:11;13.73;;;12.73;;
11935;SDS011;6027;48.576;9.180;2023-07-30T00:56:37;17.00;;;15.60;;
11935;SDS011;6027;48.576;9.180;2023-07-30T00:59:06;13.27;;;12.38;;
11935;SDS011;6027;48.576;9.180;2023-07-30T01:01:33;13.50;;;12.50;;
11935;SDS011;6027;48.576;9.180;2023-07-30T01:03:59;13.70;;;12.73;;
11935;SDS011;6027;48.576;9.180;2023-07-30T01:06:25;12.30;;;11.27;;
11935;SDS011;6027;48.576;9.180;2023-07-30T01:08:50;13.65;;;12.68;;
11935;SDS011;6027;48.576;9.180;2023-07-30T01:11:16;12.00;;;11.10;;
11935;SDS011;6027;48.576;9.180;2023-07-30T01:13:43;14.05;;;12.98;;
11935;SDS011;6027;48.576;9.180;2023-07-30T01:16:09;12.40;;;11.23;;
11935;SDS011;6027;48.576;9.180;2023-07-30T01:18:34;13.00;;;12.10;;
11935;SDS011;6027;48.576;9.180;2023-07-30T01:21:00;13.95;;;12.70;;
11935;SDS011;6027;48.576;9.180;2023-07-30T01:23:26;11.75;;;10.88;;
11935;SDS011;6027;48.576;9.180;2023-07-30T01:26:03;14.43;;;13.48;;
11935;SDS011;6027;48.576;9.180;2023-07-30T01:28:33;13.77;;;12.77;;
11935;SDS011;6027;48.576;9.180;2023-07-30T01:31:03;13.75;;;12.75;;
11935;SDS011;6027;48.576;9.180;2023-07-30T01:33:30;14.88;;;13.90;;
11935;SDS011;6027;48.576;9.180;2023-07-30T01:35:56;16.35;;;15.15;;
11935;SDS011;6027;48.576;9.180;2023-07-30T01:38:23;15.18;;;14.07;;
11935;SDS011;6027;48.576;9.180;2023-07-30T01:40:51;13.30;;;12.15;;
11935;SDS011;6027;48.576;9.180;2023-07-30T01:43:17;12.85;;;11.75;;
11935;SDS011;6027;48.576;9.180;2023-07-30T01:45:42;14.93;;;13.95;;
11935;SDS011;6027;48.576;9.180;2023-07-30T01:48:08;12.00;;;11.00;;
11935;SDS011;6027;48.576;9.180;2023-07-30T01:50:33;12.43;;;11.60;;
11935;SDS011;6027;48.576;9.180;2023-07-30T01:52:59;12.88;;;11.98;;
11935;SDS011;6027;48.576;9.180;2023-07-30T01:55:24;12.10;;;11.30;;
11935;SDS011;6027;48.576;9.180;2023-07-30T01:57:49;13.07;;;12.05;;
11935;SDS011;6027;48.576;9.180;2023-07-30T02:00:15;15.23;;;14.10;;
11935;SDS011;6027;48.576;9.180;2023-07-30T02:02:42;13.57;;;12.63;;
11935;SDS011;6027;48.576;9.180;2023-07-30T02:05:07;13.52;;;12.60;;
11935;SDS011;6027;48.576;9.180;2023-07-30T02:07:32;11.93;;;11.02;;
11935;SDS011;6027;48.576;9.180;2023-07-30T02:09:58;15.50;;;14.45;;
11935;SDS011;6027;48.576;9.180;2023-07-30T02:12:23;14.23;;;13.32;;
11935;SDS011;6027;48.576;9.180;2023-07-30T02:14:49;13.98;;;12.73;;
11935;SDS011;6027;48.576;9.180;2023-07-30T02:17:14;12.27;;;11.40;;
11935;SDS011;6027;48.576;9.180;2023-07-30T02:19:40;14.20;;;13.30;;
11935;SDS011;6027;48.576;9.180;2023-07-30T02:22:07;12.50;;;11.50;;
11935;SDS011;6027;48.576;9.180;2023-07-30T02:24:32;13.30;;;12.32;;
11935;SDS011;6027;48.576;9.180;2023-07-30T02:26:58;14.25;;;13.25;;
11935;SDS011;6027;48.576;9.180;2023-07-30T02:29:23;10.85;;;10.15;;
11935;SDS011;6027;48.576;9.180;2023-07-30T02:31:48;12.73;;;11.93;;
11935;SDS011;6027;48.576;9.180;2023-07-30T02:34:14;12.18;;;11.18;;
11935;SDS011;6027;48.576;9.180;2023-07-30T02:36:39;12.38;;;11.27;;
11935;SDS011;6027;48.576;9.180;2023-07-30T02:39:05;12.57;;;11.68;;
11935;SDS011;6027;48.576;9.180;2023-07-30T02:41:30;13.85;;;12.77;;
11935;SDS011;6027;48.576;9.180;2023-07-30T02:43:55;13.45;;;12.48;;
11935;SDS011;6027;48.576;9.180;2023-07-30T02:46:21;11.38;;;10.40;;
11935;SDS011;6027;48.576;9.180;2023-07-30T02:48:46;11.88;;;10.93;;
11935;SDS011;6027;48.576;9.180;2023-07-30T02:51:11;12.05;;;11.20;;
11935;SDS011;6027;48.576;9.180;2023-07-30T02:53:37;13.45;;;12.63;;
11935;SDS011;6027;48.576;9.180;2023-07-30T02:56:02;12.40;;;11.40;;
11935;SDS011;6027;48.576;9.180;2023-07-30T02:58:28;14.23;;;13.32;;
11935;SDS011;6027;48.576;9.180;2023-07-30T03:00:53;11.98;;;11.20;;
11935;SDS011;6027;48.576;9.180;2023-07-30T03:03:18;10.35;;;9.55;;
11935;SDS011;6027;48.576;9.180;2023-07-30T03:05:44;13.70;;;12.82;;
11935;SDS011;6027;48.576;9.180;2023-07-30T03:08:09;11.20;;;10.40;;
11935;SDS011;6027;48.576;9.180;2023-07-30T03:10:38;11.35;;;10.45;;
11935;SDS011;6027;48.576;9.180;2023-07-30T03:13:03;11.40;;;10.60;;
11935;SDS011;6027;48.576;9.180;2023-07-30T03:15:29;10.80;;;9.95;;
11935;SDS011;6027;48.576;9.180;2023-07-30T03:17:54;12.73;;;11.63;;
11935;SDS011;6027;48.576;9.180;2023-07-30T03:20:20;11.40;;;10.50;;
11935;SDS011;6027;48.576;9.180;2023-07-30T03:22:45;12.73;;;11.90;;
11935;SDS011;6027;48.576;9.180;2023-07-30T03:25:10;10.32;;;9.63;;
11935;SDS011;6027;48.576;9.180;2023-07-30T03:27:36;10.70;;;9.93;;
11935;SDS011;6027;48.576;9.180;2023-07-30T03:30:02;9.95;;;9.07;;
11935;SDS011;6027;48.576;9.180;2023-07-30T03:32:27;13.02;;;12.05;;
11935;SDS011;6027;48.576;9.180;2023-07-30T03:34:53;12.00;;;11.10;;
11935;SDS011;6027;48.576;9.180;2023-07-30T03:37:18;12.32;;;11.43;;
11935;SDS011;6027;48.576;9.180;2023-07-30T03:39:44;10.65;;;9.93;;
11935;SDS011;6027;48.576;9.180;2023-07-30T03:42:09;10.02;;;9.45;;
11935;SDS011;6027;48.576;9.180;2023-07-30T03:44:35;9.35;;;8.75;;
11935;SDS011;6027;48.576;9.180;2023-07-30T03:47:00;12.68;;;11.75;;
11935;SDS011;6027;48.576;9.180;2023-07-30T03:49:26;11.25;;;10.55;;
11935;SDS011;6027;48.576;9.180;2023-07-30T03:51:51;15.32;;;14.43;;
11935;SDS011;6027;48.576;9.180;2023-07-30T03:54:17;13.00;;;12.07;;
11935;SDS011;6027;48.576;9.180;2023-07-30T03:56:42;9.50;;;8.93;;
11935;SDS011;6027;48.576;9.180;2023-07-30T03:59:07;12.23;;;11.48;;
11935;SDS011;6027;48.576;9.180;2023-07-30T04:01:33;10.82;;;9.88;;
11935;SDS011;6027;48.576;9.180;2023-07-30T04:03:59;12.60;;;11.50;;
11935;SDS011;6027;48.576;9.180;2023-07-30T04:06:24;10.43;;;9.63;;
11935;SDS011;6027;48.576;9.180;2023-07-30T04:08:49;11.55;;;10.73;;
11935;SDS011;6027;48.576;9.180;2023-07-30T04:11:15;13.20;;;12.30;;
11935;SDS011;6027;48.576;9.180;2023-07-30T04:13:41;13.10;;;12.30;;
11935;SDS011;6027;48.576;9.180;2023-07-30T04:16:07;12.68;;;11.23;;
11935;SDS011;6027;48.576;9.180;2023-07-30T04:18:32;12.02;;;11.02;;
11935;SDS011;6027;48.576;9.180;2023-07-30T04:20:57;13.18;;;12.30;;
11935;SDS011;6027;48.576;9.180;2023-07-30T04:23:23;12.20;;;11.43;;
11935;SDS011;6027;48.576;9.180;2023-07-30T04:25:49;12.30;;;11.35;;
11935;SDS011;6027;48.576;9.180;2023-07-30T04:28:15;10.73;;;9.85;;
11935;SDS011;6027;48.576;9.180;2023-07-30T04:30:40;12.75;;;11.85;;
11935;SDS011;6027;48.576;9.180;2023-07-30T04:33:06;12.77;;;11.80;;
11935;SDS011;6027;48.576;9.180;2023-07-30T04:35:31;13.13;;;12.23;;
11935;SDS011;6027;48.576;9.180;2023-07-30T04:37:57;11.15;;;10.40;;
11935;SDS011;6027;48.576;9.180;2023-07-30T04:40:22;11.30;;;10.52;;
11935;SDS011;6027;48.576;9.180;2023-07-30T04:42:48;12.90;;;11.90;;
11935;SDS011;6027;48.576;9.180;2023-07-30T04:45:13;13.10;;;12.20;;
11935;SDS011;6027;48.576;9.180;2023-07-30T04:47:39;10.48;;;9.82;;
11935;SDS011;6027;48.576;9.180;2023-07-30T04:50:04;13.55;;;12.52;;
11935;SDS011;6027;48.576;9.180;2023-07-30T04:52:30;12.50;;;10.50;;
11935;SDS011;6027;48.576;9.180;2023-07-30T04:54:56;10.32;;;9.52;;
11935;SDS011;6027;48.576;9.180;2023-07-30T04:57:21;12.93;;;12.13;;
11935;SDS011;6027;48.576;9.180;2023-07-30T04:59:46;12.82;;;12.02;;
11935;SDS011;6027;48.576;9.180;2023-07-30T05:02:12;11.32;;;10.52;;
11935;SDS011;6027;48.576;9.180;2023-07-30T05:04:37;12.05;;;11.27;;
11935;SDS011;6027;48.576;9.180;2023-07-30T05:07:03;15.05;;;14.05;;
11935;SDS011;6027;48.576;9.180;2023-07-30T05:09:29;10.90;;;10.10;;
11935;SDS011;6027;48.576;9.180;2023-07-30T05:11:54;11.00;;;10.15;;
11935;SDS011;6027;48.576;9.180;2023-07-30T05:14:20;12.85;;;11.88;;
11935;SDS011;6027;48.576;9.180;2023-07-30T05:16:45;12.52;;;11.55;;
11935;SDS011;6027;48.576;9.180;2023-07-30T05:19:10;12.23;;;11.20;;
11935;SDS011;6027;48.576;9.180;2023-07-30T05:21:36;11.07;;;10.27;;
11935;SDS011;6027;48.576;9.180;2023-07-30T05:24:02;12.20;;;11.43;;
11935;SDS011;6027;48.576;9.180;2023-07-30T05:26:27;11.75;;;10.85;;
11935;SDS011;6027;48.576;9.180;2023-07-30T05:28:52;10.85;;;10.05;;
11935;SDS011;6027;48.576;9.180;2023-07-30T05:31:18;12.98;;;12.07;;
11935;SDS011;6027;48.576;9.180;2023-07-30T05:33:43;10.30;;;9.43;;
11935;SDS011;6027;48.576;9.180;2023-07-30T05:36:09;12.85;;;11.95;;
11935;SDS011;6027;48.576;9.180;2023-07-30T05:38:34;11.10;;;10.40;;
11935;SDS011;6027;48.576;9.180;2023-07-30T05:40:59;13.43;;;12.52;;
11935;SDS011;6027;48.576;9.180;2023-07-30T05:43:25;12.15;;;11.32;;
11935;SDS011;6027;48.576;9.180;2023-07-30T05:45:50;12.63;;;11.73;;
11935;SDS011;6027;48.576;9.180;2023-07-30T05:48:16;13.20;;;12.32;;
11935;SDS011;6027;48.576;9.180;2023-07-30T05:50:41;12.07;;;11.18;;
11935;SDS011;6027;48.576;9.180;2023-07-30T05:53:07;11.50;;;10.77;;
11935;SDS011;6027;48.576;9.180;2023-07-30T05:55:32;13.38;;;12.38;;
11935;SDS011;6027;48.576;9.180;2023-07-30T05:57:58;15.00;;;13.90;;
11935;SDS011;6027;48.576;9.180;2023-07-30T06:00:23;14.60;;;13.60;;
11935;SDS011;6027;48.576;9.180;2023-07-30T06:02:49;12.55;;;11.52;;
11935;SDS011;6027;48.576;9.180;2023-07-30T06:05:15;13.02;;;12.23;;
11935;SDS011;6027;48.576;9.180;2023-07-30T06:07:40;13.77;;;12.68;;
11935;SDS011;6027;48.576;9.180;2023-07-30T06:10:05;11.90;;;11.10;;
11935;SDS011;6027;48.576;9.180;2023-07-30T06:12:31;11.80;;;10.90;;
11935;SDS011;6027;48.576;9.180;2023-07-30T06:14:57;12.07;;;11.18;;
11935;SDS011;6027;48.576;9.180;2023-07-30T06:17:22;14.95;;;14.02;;
11935;SDS011;6027;48.576;9.180;2023-07-30T06:19:47;13.40;;;12.50;;
11935;SDS011;6027;48.576;9.180;2023-07-30T06:22:13;12.57;;;11.57;;
11935;SDS011;6027;48.576;9.180;2023-07-30T06:24:38;14.73;;;13.73;;
11935;SDS011;6027;48.576;9.180;2023-07-30T06:27:04;13.23;;;12.27;;
11935;SDS011;6027;48.576;9.180;2023-07-30T06:29:30;13.30;;;12.40;;
11935;SDS011;6027;48.576;9.180;2023-07-30T06:31:55;12.40;;;11.55;;
11935;SDS011;6027;48.576;9.180;2023-07-30T06:34:21;12.95;;;12.15;;
11935;SDS011;6027;48.576;9.180;2023-07-30T06:36:46;12.10;;;11.30;;
11935;SDS011;6027;48.576;9.180;2023-07-30T06:39:11;13.70;;;12.80;;
11935;SDS011;6027;48.576;9.180;2023-07-30T06:41:37;12.70;;;11.80;;
11935;SDS011;6027;48.576;9.180;2023-07-30T06:44:02;13.40;;;12.40;;
11935;SDS011;6027;48.576;9.180;2023-07-30T06:46:28;13.68;;;12.63;;
11935;SDS011;6027;48.576;9.180;2023-07-30T06:48:54;12.77;;;11.77;;
11935;SDS011;6027;48.576;9.180;2023-07-30T06:51:19;12.00;;;11.23;;
11935;SDS011;6027;48.576;9.180;2023-07-30T06:53:45;15.00;;;14.00;;
11935;SDS011;6027;48.576;9.180;2023-07-30T06:56:11;11.60;;;10.80;;
11935;SDS011;6027;48.576;9.180;2023-07-30T06:58:36;12.00;;;11.00;;
11935;SDS011;6027;48.576;9.180;2023-07-30T07:01:02;14.75;;;13.82;;
11935;SDS011;6027;48.576;9.180;2023-07-30T07:03:27;13.38;;;12.50;;
11935;SDS011;6027;48.576;9.180;2023-07-30T07:05:53;11.05;;;10.38;;
11935;SDS011;6027;48.576;9.180;2023-07-30T07:08:20;11.60;;;10.55;;
11935;SDS011;6027;48.576;9.180;2023-07-30T07:10:46;15.43;;;14.32;;
11935;SDS011;6027;48.576;9.180;2023-07-30T07:13:11;14.32;;;13.43;;
11935;SDS011;6027;48.576;9.180;2023-07-30T07:15:40;13.02;;;12.13;;
11935;SDS011;6027;48.576;9.180;2023-07-30T07:18:06;11.57;;;10.77;;
11935;SDS011;6027;48.576;9.180;2023-07-30T07:20:32;12.48;;;11.57;;
11935;SDS011;6027;48.576;9.180;2023-07-30T07:22:57;15.15;;;14.20;;
11935;SDS011;6027;48.576;9.180;2023-07-30T07:25:22;10.20;;;9.48;;
11935;SDS011;6027;48.576;9.180;2023-07-30T07:27:48;12.25;;;11.27;;
11935;SDS011;6027;48.576;9.180;2023-07-30T07:30:13;14.18;;;13.07;;
11935;SDS011;6027;48.576;9.180;2023-07-30T07:32:38;12.10;;;11.35;;
11935;SDS011;6027;48.576;9.180;2023-07-30T07:35:04;9.85;;;9.15;;
11935;SDS011;6027;48.576;9.180;2023-07-30T07:37:31;9.57;;;7.90;;
11935;SDS011;6027;48.576;9.180;2023-07-30T07:39:57;12.77;;;11.88;;
11935;SDS011;6027;48.576;9.180;2023-07-30T07:42:22;11.32;;;9.85;;
11935;SDS011;6027;48.576;9.180;2023-07-30T07:44:48;10.82;;;10.15;;
11935;SDS011;6027;48.576;9.180;2023-07-30T07:47:13;10.15;;;9.55;;
11935;SDS011;6027;48.576;9.180;2023-07-30T07:49:38;9.80;;;8.98;;
11935;SDS011;6027;48.576;9.180;2023-07-30T07:52:04;10.65;;;9.75;;
11935;SDS011;6027;48.576;9.180;2023-07-30T07:54:29;11.05;;;10.35;;
11935;SDS011;6027;48.576;9.180;2023-07-30T07:56:55;12.15;;;11.38;;
11935;SDS011;6027;48.576;9.180;2023-07-30T07:59:20;12.32;;;11.45;;
11935;SDS011;6027;48.576;9.180;2023-07-30T08:01:46;13.38;;;12.48;;
11935;SDS011;6027;48.576;9.180;2023-07-30T08:04:11;12.25;;;11.48;;
11935;SDS011;6027;48.576;9.180;2023-07-30T08:06:36;11.35;;;10.45;;
11935;SDS011;6027;48.576;9.180;2023-07-30T08:09:02;12.15;;;11.35;;
11935;SDS011;6027;48.576;9.180;2023-07-30T08:11:27;11.80;;;11.05;;
11935;SDS011;6027;48.576;9.180;2023-07-30T08:13:53;11.75;;;11.00;;
11935;SDS011;6027;48.576;9.180;2023-07-30T08:16:18;12.95;;;12.15;;
11935;SDS011;6027;48.576;9.180;2023-07-30T08:18:44;11.27;;;10.57;;
11935;SDS011;6027;48.576;9.180;2023-07-30T08:21:09;10.27;;;9.57;;
11935;SDS011;6027;48.576;9.180;2023-07-30T08:23:35;11.68;;;10.88;;
11935;SDS011;6027;48.576;9.180;2023-07-30T08:26:00;10.25;;;9.55;;
11935;SDS011;6027;48.576;9.180;2023-07-30T08:28:26;9.80;;;9.05;;
11935;SDS011;6027;48.576;9.180;2023-07-30T08:30:51;12.05;;;11.30;;
11935;SDS011;6027;48.576;9.180;2023-07-30T08:33:16;10.85;;;10.15;;
11935;SDS011;6027;48.576;9.180;2023-07-30T08:35:42;12.23;;;11.38;;
11935;SDS011;6027;48.576;9.180;2023-07-30T08:38:07;9.43;;;8.82;;
11935;SDS011;6027;48.576;9.180;2023-07-30T08:40:33;15.15;;;14.00;;
11935;SDS011;6027;48.576;9.180;2023-07-30T08:42:59;11.90;;;11.07;;
11935;SDS011;6027;48.576;9.180;2023-07-30T08:45:27;12.88;;;11.98;;
11935;SDS011;6027;48.576;9.180;2023-07-30T08:47:52;12.05;;;11.18;;
11935;SDS011;6027;48.576;9.180;2023-07-30T08:50:18;12.25;;;11.45;;
11935;SDS011;6027;48.576;9.180;2023-07-30T08:52:43;11.57;;;10.88;;
11935;SDS011;6027;48.576;9.180;2023-07-30T08:55:09;14.32;;;13.43;;
11935;SDS011;6027;48.576;9.180;2023-07-30T08:57:36;9.18;;;8.57;;
11935;SDS011;6027;48.576;9.180;2023-07-30T09:00:08;10.15;;;9.57;;
11935;SDS011;6027;48.576;9.180;2023-07-30T09:02:39;10.07;;;9.48;;
11935;SDS011;6027;48.576;9.180;2023-07-30T09:05:11;10.98;;;10.32;;
11935;SDS011;6027;48.576;9.180;2023-07-30T09:07:37;10.25;;;9.65;;
11935;SDS011;6027;48.576;9.180;2023-07-30T09:10:02;11.77;;;11.02;;
11935;SDS011;6027;48.576;9.180;2023-07-30T09:12:28;10.52;;;9.90;;
11935;SDS011;6027;48.576;9.180;2023-07-30T09:14:57;11.00;;;10.38;;
11935;SDS011;6027;48.576;9.180;2023-07-30T09:17:23;12.73;;;11.93;;
11935;SDS011;6027;48.576;9.180;2023-07-30T09:19:50;12.45;;;11.55;;
11935;SDS011;6027;48.576;9.180;2023-07-30T09:22:20;11.38;;;10.57;;
11935;SDS011;6027;48.576;9.180;2023-07-30T09:24:49;10.02;;;9.43;;
11935;SDS011;6027;48.576;9.180;2023-07-30T09:27:19;11.30;;;10.52;;
11935;SDS011;6027;48.576;9.180;2023-07-30T09:29:58;12.77;;;11.82;;
11935;SDS011;6027;48.576;9.180;2023-07-30T09:32:34;11.32;;;10.70;;
11935;SDS011;6027;48.576;9.180;2023-07-30T09:35:03;11.18;;;10.52;;
11935;SDS011;6027;48.576;9.180;2023-07-30T09:37:33;11.65;;;11.00;;
11935;SDS011;6027;48.576;9.180;2023-07-30T09:42:46;11.82;;;10.80;;
11935;SDS011;6027;48.576;9.180;2023-07-30T09:45:23;10.80;;;10.00;;
11935;SDS011;6027;48.576;9.180;2023-07-30T09:47:51;26.38;;;12.65;;
11935;SDS011;6027;48.576;9.180;2023-07-30T09:50:18;14.57;;;13.57;;
11935;SDS011;6027;48.576;9.180;2023-07-30T09:52:44;11.10;;;9.80;;
11935;SDS011;6027;48.576;9.180;2023-07-30T09:55:10;12.27;;;11.38;;
11935;SDS011;6027;48.576;9.180;2023-07-30T09:57:36;10.05;;;9.45;;
11935;SDS011;6027;48.576;9.180;2023-07-30T10:00:03;12.10;;;11.32;;
11935;SDS011;6027;48.576;9.180;2023-07-30T10:02:29;11.02;;;10.40;;
11935;SDS011;6027;48.576;9.180;2023-07-30T10:04:58;11.90;;;11.20;;
11935;SDS011;6027;48.576;9.180;2023-07-30T10:07:25;12.05;;;11.25;;
11935;SDS011;6027;48.576;9.180;2023-07-30T10:09:54;11.98;;;11.25;;
11935;SDS011;6027;48.576;9.180;2023-07-30T10:12:27;10.55;;;9.90;;
11935;SDS011;6027;48.576;9.180;2023-07-30T10:14:56;11.18;;;10.50;;
11935;SDS011;6027;48.576;9.180;2023-07-30T10:17:22;11.20;;;10.52;;
11935;SDS011;6027;48.576;9.180;2023-07-30T10:19:48;13.98;;;13.07;;
11935;SDS011;6027;48.576;9.180;2023-07-30T10:24:59;13.05;;;12.05;;
11935;SDS011;6027;48.576;9.180;2023-07-30T10:27:35;10.77;;;10.07;;
11935;SDS011;6027;48.576;9.180;2023-07-30T10:38:15;11.00;;;10.20;;
11935;SDS011;6027;48.576;9.180;2023-07-30T10:40:41;11.88;;;11.20;;
11935;SDS011;6027;48.576;9.180;2023-07-30T10:43:16;11.05;;;10.35;;
11935;SDS011;6027;48.576;9.180;2023-07-30T10:45:51;9.43;;;8.88;;
11935;SDS011;6027;48.576;9.180;2023-07-30T10:48:17;12.50;;;11.73;;
11935;SDS011;6027;48.576;9.180;2023-07-30T10:50:43;10.45;;;9.65;;
11935;SDS011;6027;48.576;9.180;2023-07-30T10:53:14;13.10;;;11.88;;
11935;SDS011;6027;48.576;9.180;2023-07-30T10:55:41;7.85;;;7.25;;
11935;SDS011;6027;48.576;9.180;2023-07-30T10:58:07;11.05;;;10.40;;
11935;SDS011;6027;48.576;9.180;2023-07-30T11:00:32;10.73;;;10.05;;
11935;SDS011;6027;48.576;9.180;2023-07-30T11:02:57;10.98;;;10.27;;
11935;SDS011;6027;48.576;9.180;2023-07-30T11:05:23;11.10;;;10.20;;
11935;SDS011;6027;48.576;9.180;2023-07-30T11:07:50;9.27;;;8.63;;
11935;SDS011;6027;48.576;9.180;2023-07-30T11:10:16;9.95;;;9.35;;
11935;SDS011;6027;48.576;9.180;2023-07-30T11:12:42;9.93;;;9.32;;
11935;SDS011;6027;48.576;9.180;2023-07-30T11:15:07;13.43;;;12.63;;
11935;SDS011;6027;48.576;9.180;2023-07-30T11:17:33;14.10;;;13.25;;
11935;SDS011;6027;48.576;9.180;2023-07-30T11:19:59;9.25;;;8.55;;
11935;SDS011;6027;48.576;9.180;2023-07-30T11:22:34;12.07;;;11.25;;
11935;SDS011;6027;48.576;9.180;2023-07-30T11:25:00;10.95;;;10.25;;
11935;SDS011;6027;48.576;9.180;2023-07-30T11:27:44;8.68;;;8.18;;
11935;SDS011;6027;48.576;9.180;2023-07-30T11:30:12;9.57;;;8.98;;
11935;SDS011;6027;48.576;9.180;2023-07-30T11:32:38;8.38;;;7.90;;
11935;SDS011;6027;48.576;9.180;2023-07-30T11:35:04;9.48;;;8.68;;
11935;SDS011;6027;48.576;9.180;2023-07-30T11:37:32;12.65;;;11.73;;
11935;SDS011;6027;48.576;9.180;2023-07-30T11:39:57;11.10;;;10.27;;
11935;SDS011;6027;48.576;9.180;2023-07-30T11:42:23;8.77;;;8.18;;
11935;SDS011;6027;48.576;9.180;2023-07-30T11:44:49;10.85;;;10.25;;
11935;SDS011;6027;48.576;9.180;2023-07-30T11:47:20;10.85;;;10.05;;
11935;SDS011;6027;48.576;9.180;2023-07-30T11:49:54;8.43;;;7.82;;
11935;SDS011;6027;48.576;9.180;2023-07-30T11:52:23;7.10;;;6.60;;
11935;SDS011;6027;48.576;9.180;2023-07-30T11:54:59;7.85;;;7.30;;
11935;SDS011;6027;48.576;9.180;2023-07-30T11:57:34;8.85;;;8.23;;
11935;SDS011;6027;48.576;9.180;2023-07-30T12:00:00;8.45;;;7.95;;
11935;SDS011;6027;48.576;9.180;2023-07-30T12:02:26;9.98;;;9.30;;
11935;SDS011;6027;48.576;9.180;2023-07-30T12:04:52;7.90;;;7.30;;
11935;SDS011;6027;48.576;9.180;2023-07-30T12:07:24;10.07;;;9.27;;
11935;SDS011;6027;48.576;9.180;2023-07-30T12:09:50;8.65;;;8.15;;
11935;SDS011;6027;48.576;9.180;2023-07-30T12:12:15;9.07;;;8.48;;
11935;SDS011;6027;48.576;9.180;2023-07-30T12:14:45;9.38;;;8.75;;
11935;SDS011;6027;48.576;9.180;2023-07-30T12:17:19;7.95;;;7.45;;
11935;SDS011;6027;48.576;9.180;2023-07-30T12:19:44;8.25;;;7.75;;
11935;SDS011;6027;48.576;9.180;2023-07-30T12:22:10;8.50;;;7.90;;
11935;SDS011;6027;48.576;9.180;2023-07-30T12:24:38;9.02;;;8.38;;
11935;SDS011;6027;48.576;9.180;2023-07-30T12:27:06;6.97;;;6.47;;
11935;SDS011;6027;48.576;9.180;2023-07-30T12:29:31;8.23;;;7.63;;
11935;SDS011;6027;48.576;9.180;2023-07-30T12:31:56;8.10;;;7.60;;
11935;SDS011;6027;48.576;9.180;2023-07-30T12:34:22;7.97;;;7.28;;
11935;SDS011;6027;48.576;9.180;2023-07-30T12:36:48;8.98;;;8.18;;
11935;SDS011;6027;48.576;9.180;2023-07-30T12:39:14;9.07;;;8.48;;
11935;SDS011;6027;48.576;9.180;2023-07-30T12:41:39;8.63;;;7.88;;
11935;SDS011;6027;48.576;9.180;2023-07-30T12:44:04;7.40;;;6.75;;
11935;SDS011;6027;48.576;9.180;2023-07-30T12:46:30;8.27;;;7.78;;
11935;SDS011;6027;48.576;9.180;2023-07-30T12:48:57;7.15;;;6.75;;
11935;SDS011;6027;48.576;9.180;2023-07-30T12:51:31;6.65;;;6.25;;
11935;SDS011;6027;48.576;9.180;2023-07-30T12:53:57;9.07;;;8.57;;
11935;SDS011;6027;48.576;9.180;2023-07-30T12:56:23;6.25;;;5.85;;
11935;SDS011;6027;48.576;9.180;2023-07-30T12:58:48;7.25;;;6.55;;
11935;SDS011;6027;48.576;9.180;2023-07-30T13:01:13;8.63;;;7.93;;
11935;SDS011;6027;48.576;9.180;2023-07-30T13:03:39;7.20;;;6.70;;
11935;SDS011;6027;48.576;9.180;2023-07-30T13:06:09;8.98;;;8.35;;
11935;SDS011;6027;48.576;9.180;2023-07-30T13:08:35;8.75;;;8.15;;
11935;SDS011;6027;48.576;9.180;2023-07-30T13:11:01;9.57;;;8.95;;
11935;SDS011;6027;48.576;9.180;2023-07-30T13:13:26;9.23;;;8.63;;
11935;SDS011;6027;48.576;9.180;2023-07-30T13:15:51;8.50;;;7.78;;
11935;SDS011;6027;48.576;9.180;2023-07-30T13:18:17;7.55;;;7.00;;
11935;SDS011;6027;48.576;9.180;2023-07-30T13:20:42;9.55;;;8.95;;
11935;SDS011;6027;48.576;9.180;2023-07-30T13:23:08;8.23;;;7.53;;
11935;SDS011;6027;48.576;9.180;2023-07-30T13:25:33;8.45;;;7.85;;
11935;SDS011;6027;48.576;9.180;2023-07-30T13:27:58;7.35;;;6.75;;
11935;SDS011;6027;48.576;9.180;2023-07-30T13:30:24;8.30;;;7.60;;
11935;SDS011;6027;48.576;9.180;2023-07-30T13:32:49;7.95;;;7.47;;
11935;SDS011;6027;48.576;9.180;2023-07-30T13:35:15;9.15;;;8.55;;
11935;SDS011;6027;48.576;9.180;2023-07-30T13:37:40;8.43;;;7.88;;
11935;SDS011;6027;48.576;9.180;2023-07-30T13:40:06;6.65;;;6.25;;
11935;SDS011;6027;48.576;9.180;2023-07-30T13:42:32;7.32;;;6.82;;
11935;SDS011;6027;48.576;9.180;2023-07-30T13:44:57;8.43;;;7.60;;
11935;SDS011;6027;48.576;9.180;2023-07-30T13:47:23;8.75;;;8.25;;
11935;SDS011;6027;48.576;9.180;2023-07-30T13:49:48;6.97;;;6.45;;
11935;SDS011;6027;48.576;9.180;2023-07-30T13:52:14;8.15;;;7.65;;
11935;SDS011;6027;48.576;9.180;2023-07-30T13:54:40;8.65;;;8.15;;
11935;SDS011;6027;48.576;9.180;2023-07-30T13:57:06;8.38;;;7.85;;
11935;SDS011;6027;48.576;9.180;2023-07-30T13:59:32;7.40;;;6.90;;
11935;SDS011;6027;48.576;9.180;2023-07-30T14:01:57;8.65;;;7.90;;
11935;SDS011;6027;48.576;9.180;2023-07-30T14:04:23;7.82;;;7.32;;
11935;SDS011;6027;48.576;9.180;2023-07-30T14:06:49;7.70;;;7.07;;
11935;SDS011;6027;48.576;9.180;2023-07-30T14:09:14;9.82;;;9.20;;
11935;SDS011;6027;48.576;9.180;2023-07-30T14:11:39;7.93;;;7.32;;
11935;SDS011;6027;48.576;9.180;2023-07-30T14:14:08;7.05;;;6.65;;
11935;SDS011;6027;48.576;9.180;2023-07-30T14:16:33;7.93;;;7.22;;
11935;SDS011;6027;48.576;9.180;2023-07-30T14:18:59;8.88;;;8.05;;
11935;SDS011;6027;48.576;9.180;2023-07-30T14:21:24;8.85;;;8.15;;
11935;SDS011;6027;48.576;9.180;2023-07-30T14:23:49;7.40;;;6.90;;
11935;SDS011;6027;48.576;9.180;2023-07-30T14:26:15;8.18;;;7.63;;
11935;SDS011;6027;48.576;9.180;2023-07-30T14:28:40;7.60;;;6.93;;
11935;SDS011;6027;48.576;9.180;2023-07-30T14:31:06;7.40;;;6.97;;
11935;SDS011;6027;48.576;9.180;2023-07-30T14:33:32;8.48;;;7.82;;
11935;SDS011;6027;48.576;9.180;2023-07-30T14:35:57;8.25;;;7.63;;
11935;SDS011;6027;48.576;9.180;2023-07-30T14:38:23;11.63;;;7.55;;
11935;SDS011;6027;48.576;9.180;2023-07-30T14:40:48;8.68;;;8.05;;
11935;SDS011;6027;48.576;9.180;2023-07-30T14:43:14;7.82;;;6.68;;
11935;SDS011;6027;48.576;9.180;2023-07-30T14:45:39;9.20;;;8.60;;
11935;SDS011;6027;48.576;9.180;2023-07-30T14:48:04;8.00;;;7.22;;
11935;SDS011;6027;48.576;9.180;2023-07-30T14:50:30;8.70;;;8.10;;